Time;durP1;ratioP1;P1;durP2;ratioP2;P2;SDS_P1;SDS_P2;PMS_P1;PMS_P2;Temp;Humidity;BMP_temperature;BMP_pressure;BME280_temperature;BME280_humidity;BME280_pressure;Samples;Min_cycle;Max_cycle;Signal;HPM_P1;HPM_P2
2022/07/29 00:01:29;;;;;;;1.40;1.40;;;18.60;99.90;;;;;;4987636;28;20239;-52
2022/07/29 00:03:56;;;;;;;1.23;1.13;;;18.60;99.90;;;;;;4994043;28;20204;-53
2022/07/29 00:06:23;;;;;;;1.07;1.00;;;18.50;99.90;;;;;;4994184;28;20223;-53
2022/07/29 00:08:50;;;;;;;0.87;0.87;;;18.50;99.90;;;;;;4985570;28;20716;-53
2022/07/29 00:11:17;;;;;;;1.90;0.90;;;18.40;99.90;;;;;;4994228;28;20277;-53
2022/07/29 00:13:46;;;;;;;0.87;0.70;;;18.30;99.90;;;;;;4993181;28;20212;-53
2022/07/29 00:16:15;;;;;;;2.67;0.90;;;18.20;99.90;;;;;;4995618;28;20270;-53
2022/07/29 00:18:45;;;;;;;1.37;1.27;;;18.10;99.90;;;;;;4993429;28;20294;-53
2022/07/29 00:21:12;;;;;;;1.00;0.70;;;18.10;99.90;;;;;;4995751;28;20200;-53
2022/07/29 00:23:42;;;;;;;3.47;1.00;;;18.10;99.90;;;;;;4995408;28;20235;-53
2022/07/29 00:26:09;;;;;;;0.50;0.50;;;18.00;99.90;;;;;;4995642;28;20223;-53
2022/07/29 00:28:36;;;;;;;0.70;0.70;;;18.00;99.90;;;;;;4992058;28;20262;-53
2022/07/29 00:31:03;;;;;;;0.70;0.70;;;18.10;99.90;;;;;;4987770;28;20204;-53
2022/07/29 00:33:32;;;;;;;1.30;0.80;;;18.10;99.90;;;;;;4992079;28;20611;-53
2022/07/29 00:35:58;;;;;;;0.63;0.63;;;18.10;99.90;;;;;;4995608;28;20266;-53
2022/07/29 00:38:24;;;;;;;1.23;0.60;;;18.00;99.90;;;;;;4985851;28;20594;-53
2022/07/29 00:40:52;;;;;;;1.37;0.70;;;18.00;99.90;;;;;;4990011;28;20697;-53
2022/07/29 00:43:19;;;;;;;2.77;1.00;;;17.90;99.90;;;;;;4990464;28;20205;-53
2022/07/29 00:45:46;;;;;;;0.93;0.70;;;17.90;99.90;;;;;;4995260;28;20219;-52
2022/07/29 00:48:13;;;;;;;1.60;0.60;;;17.90;99.90;;;;;;4987784;28;20212;-52
2022/07/29 00:50:43;;;;;;;0.63;0.63;;;18.00;99.90;;;;;;4993842;28;20224;-53
2022/07/29 00:53:12;;;;;;;0.60;0.60;;;18.00;99.90;;;;;;4981048;28;20260;-53
2022/07/29 00:55:39;;;;;;;0.50;0.50;;;18.10;99.90;;;;;;4995055;28;20251;-53
2022/07/29 00:58:07;;;;;;;0.63;0.63;;;18.00;99.90;;;;;;4987927;28;20204;-53
2022/07/29 01:00:34;;;;;;;0.77;0.73;;;18.00;99.90;;;;;;4992786;28;20620;-53
2022/07/29 01:03:01;;;;;;;0.60;0.60;;;18.10;99.90;;;;;;4994097;28;20207;-53
2022/07/29 01:05:29;;;;;;;0.70;0.70;;;18.00;99.90;;;;;;4993761;28;20200;-53
2022/07/29 01:07:58;;;;;;;0.70;0.70;;;18.00;99.90;;;;;;4990093;28;20219;-53
2022/07/29 01:10:26;;;;;;;0.50;0.50;;;18.00;99.90;;;;;;4994686;28;20216;-52
2022/07/29 01:12:58;;;;;;;0.70;0.70;;;18.00;99.90;;;;;;4993226;28;20669;-53
2022/07/29 01:15:25;;;;;;;0.60;0.60;;;18.00;99.90;;;;;;4993164;28;20240;-53
2022/07/29 01:18:00;;;;;;;0.90;0.90;;;18.00;99.90;;;;;;4988297;28;20639;-53
2022/07/29 01:20:39;;;;;;;0.50;0.50;;;18.00;99.90;;;;;;4993706;28;20731;-53
2022/07/29 01:23:24;;;;;;;0.63;0.63;;;18.00;99.90;;;;;;4993869;28;20210;-53
2022/07/29 01:26:21;;;;;;;0.70;0.63;;;18.00;99.90;;;;;;4992472;28;20709;-53
2022/07/29 01:29:03;;;;;;;0.83;0.83;;;17.90;99.90;;;;;;4994539;28;20196;-54
2022/07/29 01:31:36;;;;;;;0.60;0.60;;;18.00;99.90;;;;;;4994713;28;20602;-53
2022/07/29 01:34:06;;;;;;;0.53;0.53;;;18.00;99.90;;;;;;4990509;28;20204;-53
2022/07/29 01:36:36;;;;;;;0.90;0.90;;;18.00;99.90;;;;;;4993026;28;20279;-52
2022/07/29 01:39:09;;;;;;;0.53;0.53;;;18.00;99.90;;;;;;4993664;28;20204;-51
2022/07/29 01:41:40;;;;;;;1.13;0.73;;;17.90;99.90;;;;;;4986250;28;20254;-53
2022/07/29 01:44:15;;;;;;;1.53;0.50;;;18.00;99.90;;;;;;4986711;28;20558;-51
2022/07/29 01:46:49;;;;;;;2.83;0.80;;;17.90;99.90;;;;;;4986319;28;20301;-52
2022/07/29 01:49:21;;;;;;;0.63;0.53;;;17.90;99.90;;;;;;4993231;28;20599;-52
2022/07/29 01:51:51;;;;;;;0.70;0.70;;;17.90;99.90;;;;;;4994146;28;20287;-53
2022/07/29 01:54:24;;;;;;;1.70;0.70;;;17.90;99.90;;;;;;4993545;28;20307;-52
2022/07/29 01:56:52;;;;;;;1.80;0.80;;;17.90;99.90;;;;;;4987316;28;20247;-52
2022/07/29 01:59:23;;;;;;;1.20;1.10;;;17.90;99.90;;;;;;4992314;28;20200;-52
2022/07/29 02:01:53;;;;;;;0.50;0.50;;;17.80;99.90;;;;;;4992370;28;20573;-52
2022/07/29 02:04:21;;;;;;;0.60;0.60;;;17.80;99.90;;;;;;4992536;28;20207;-52
2022/07/29 02:06:51;;;;;;;0.70;0.70;;;17.80;99.90;;;;;;4980170;28;20248;-52
2022/07/29 02:09:20;;;;;;;0.60;0.60;;;17.80;99.90;;;;;;4982403;28;20263;-53
2022/07/29 02:11:50;;;;;;;1.40;0.50;;;17.70;99.90;;;;;;4993537;28;20200;-52
2022/07/29 02:14:22;;;;;;;2.27;0.80;;;17.70;99.90;;;;;;4990588;28;20210;-51
2022/07/29 02:16:52;;;;;;;1.70;0.97;;;17.80;99.90;;;;;;4993601;28;20243;-51
2022/07/29 02:19:22;;;;;;;0.90;0.90;;;17.70;99.90;;;;;;4985502;28;20196;-52
2022/07/29 02:21:52;;;;;;;2.00;0.77;;;17.80;99.90;;;;;;4977572;28;20648;-52
2022/07/29 02:24:21;;;;;;;2.30;0.80;;;17.70;99.90;;;;;;4987737;28;20227;-52
2022/07/29 02:26:50;;;;;;;1.47;0.80;;;17.70;99.90;;;;;;4990846;28;20227;-52
2022/07/29 02:29:19;;;;;;;0.77;0.77;;;17.80;99.90;;;;;;4992047;28;20224;-52
2022/07/29 02:31:50;;;;;;;0.80;0.80;;;17.70;99.90;;;;;;4989765;28;20205;-52
2022/07/29 02:34:19;;;;;;;0.80;0.80;;;17.70;99.90;;;;;;4986878;28;20223;-52
2022/07/29 02:36:47;;;;;;;0.80;0.80;;;17.70;99.90;;;;;;4989722;28;20286;-52
2022/07/29 02:39:15;;;;;;;2.37;0.77;;;17.60;99.90;;;;;;4992268;28;20278;-52
2022/07/29 02:41:46;;;;;;;0.80;0.80;;;17.70;99.90;;;;;;4993397;28;20732;-52
2022/07/29 02:44:16;;;;;;;1.13;1.13;;;17.70;99.90;;;;;;4989643;28;20271;-52
2022/07/29 02:46:51;;;;;;;1.37;1.13;;;17.60;99.90;;;;;;4992399;28;20247;-51
2022/07/29 02:49:29;;;;;;;0.80;0.80;;;17.60;99.90;;;;;;4993068;28;20203;-52
2022/07/29 02:52:01;;;;;;;0.60;0.60;;;17.60;99.90;;;;;;4983410;28;20210;-52
2022/07/29 02:54:34;;;;;;;0.73;0.73;;;17.70;99.90;;;;;;4990892;28;20573;-53
2022/07/29 02:57:06;;;;;;;0.70;0.70;;;17.70;99.90;;;;;;4983737;28;20228;-52
2022/07/29 02:59:35;;;;;;;0.60;0.60;;;17.70;99.90;;;;;;4992926;28;20195;-54
2022/07/29 03:02:05;;;;;;;0.67;0.67;;;17.70;99.90;;;;;;4991844;28;20641;-54
2022/07/29 03:04:35;;;;;;;2.63;0.87;;;17.80;99.90;;;;;;4985792;28;20662;-53
2022/07/29 03:07:03;;;;;;;0.83;0.83;;;17.70;99.90;;;;;;4992718;28;20779;-52
2022/07/29 03:09:31;;;;;;;0.90;0.90;;;17.70;99.90;;;;;;4992543;28;20227;-53
2022/07/29 03:11:58;;;;;;;0.60;0.60;;;17.70;99.90;;;;;;4992910;28;20271;-53
2022/07/29 03:14:26;;;;;;;0.80;0.80;;;17.70;99.90;;;;;;4990349;28;20269;-52
2022/07/29 03:16:53;;;;;;;2.30;0.70;;;17.70;99.90;;;;;;4991585;28;20263;-53
2022/07/29 03:19:22;;;;;;;0.90;0.90;;;17.80;99.90;;;;;;4992691;28;20242;-52
2022/07/29 03:21:50;;;;;;;2.00;0.80;;;17.80;99.90;;;;;;4973488;28;20215;-53
2022/07/29 03:24:31;;;;;;;1.80;0.60;;;17.80;99.90;;;;;;4984732;28;20199;-53
2022/07/29 03:26:59;;;;;;;1.17;1.00;;;17.80;99.90;;;;;;4986308;28;20297;-52
2022/07/29 03:29:27;;;;;;;2.77;1.20;;;17.70;99.90;;;;;;4991528;28;20703;-52
2022/07/29 03:31:54;;;;;;;1.57;0.93;;;17.70;99.90;;;;;;4990287;28;20266;-54
2022/07/29 03:34:23;;;;;;;1.40;0.90;;;17.60;99.90;;;;;;4987990;28;20314;-52
2022/07/29 03:36:50;;;;;;;1.00;1.00;;;17.60;99.90;;;;;;4989297;28;20224;-53
2022/07/29 03:39:21;;;;;;;0.70;0.70;;;17.60;99.90;;;;;;4991052;28;20215;-52
2022/07/29 03:41:52;;;;;;;0.60;0.60;;;17.70;99.90;;;;;;4991839;28;20231;-52
2022/07/29 03:44:23;;;;;;;0.80;0.80;;;17.70;99.90;;;;;;4991324;28;20233;-53
2022/07/29 03:46:54;;;;;;;0.70;0.70;;;17.70;99.90;;;;;;4983159;28;20763;-52
2022/07/29 03:49:22;;;;;;;0.93;0.63;;;17.80;99.90;;;;;;4990454;28;20239;-52
2022/07/29 03:51:51;;;;;;;0.90;0.90;;;17.80;99.90;;;;;;4986607;28;20654;-53
2022/07/29 03:54:18;;;;;;;1.10;1.00;;;17.80;99.90;;;;;;4991330;28;20283;-53
2022/07/29 03:56:49;;;;;;;5.50;1.67;;;17.80;99.90;;;;;;4989312;28;20298;-53
2022/07/29 03:59:19;;;;;;;0.70;0.70;;;17.80;99.90;;;;;;4990410;28;20204;-52
2022/07/29 04:01:48;;;;;;;0.83;0.83;;;17.80;99.90;;;;;;4982386;28;20283;-52
2022/07/29 04:04:16;;;;;;;0.70;0.70;;;17.80;99.90;;;;;;4987448;28;20273;-52
2022/07/29 04:06:44;;;;;;;0.90;0.90;;;17.80;99.90;;;;;;4991169;28;20222;-53
2022/07/29 04:09:13;;;;;;;1.77;0.67;;;17.80;99.90;;;;;;4987622;28;20250;-53
2022/07/29 04:11:42;;;;;;;1.47;0.63;;;17.90;99.90;;;;;;4991101;28;20270;-53
2022/07/29 04:14:09;;;;;;;0.97;0.90;;;17.90;99.90;;;;;;4989592;28;20234;-54
2022/07/29 04:16:36;;;;;;;1.07;0.53;;;17.90;99.90;;;;;;4990184;28;20319;-53
2022/07/29 04:19:03;;;;;;;2.27;0.70;;;17.90;99.90;;;;;;4991070;28;20643;-53
2022/07/29 04:21:30;;;;;;;0.70;0.70;;;17.90;99.90;;;;;;4991484;28;20595;-53
2022/07/29 04:23:57;;;;;;;1.30;1.23;;;17.90;99.90;;;;;;4990652;28;20203;-53
2022/07/29 04:26:26;;;;;;;1.17;0.63;;;17.90;99.90;;;;;;4989765;28;20316;-53
2022/07/29 04:28:53;;;;;;;0.80;0.80;;;17.90;99.90;;;;;;4989978;28;20247;-53
2022/07/29 04:31:20;;;;;;;1.63;0.73;;;18.00;99.90;;;;;;4991269;28;20306;-52
2022/07/29 04:33:50;;;;;;;0.87;0.87;;;18.00;99.90;;;;;;4989081;28;20265;-53
2022/07/29 04:36:17;;;;;;;1.40;1.00;;;18.10;99.90;;;;;;4983987;28;20220;-53
2022/07/29 04:38:47;;;;;;;0.83;0.83;;;18.10;99.90;;;;;;4990790;28;20231;-53
2022/07/29 04:41:14;;;;;;;1.00;0.90;;;18.10;99.90;;;;;;4991376;28;20242;-53
2022/07/29 04:43:43;;;;;;;1.23;0.53;;;18.10;99.90;;;;;;4989465;28;20204;-52
2022/07/29 04:46:10;;;;;;;0.70;0.70;;;18.10;99.90;;;;;;4988838;28;20215;-52
2022/07/29 04:48:40;;;;;;;0.90;0.90;;;18.20;99.90;;;;;;4993023;28;20844;-52
2022/07/29 04:51:07;;;;;;;1.20;0.70;;;18.20;99.90;;;;;;4991682;28;20215;-52
2022/07/29 04:53:34;;;;;;;0.73;0.73;;;18.30;99.90;;;;;;4992811;28;20287;-52
2022/07/29 04:56:01;;;;;;;1.80;0.73;;;18.30;99.90;;;;;;4993887;28;20281;-53
2022/07/29 04:58:29;;;;;;;0.80;0.80;;;18.30;99.90;;;;;;4991814;28;20204;-52
2022/07/29 05:00:57;;;;;;;0.77;0.77;;;18.50;99.90;;;;;;4989295;28;20196;-52
2022/07/29 05:03:24;;;;;;;3.00;0.67;;;18.50;99.90;;;;;;4994459;28;20251;-52
2022/07/29 05:05:51;;;;;;;0.90;0.90;;;18.60;99.90;;;;;;4994317;28;20278;-53
2022/07/29 05:08:18;;;;;;;0.77;0.77;;;18.60;99.90;;;;;;4994741;28;20208;-53
2022/07/29 05:10:45;;;;;;;2.90;1.00;;;18.70;99.90;;;;;;4991677;28;20566;-53
2022/07/29 05:13:12;;;;;;;1.07;1.00;;;18.70;99.90;;;;;;4993797;28;20239;-53
2022/07/29 05:15:39;;;;;;;2.50;0.70;;;18.70;99.90;;;;;;4993745;28;20223;-53
2022/07/29 05:18:08;;;;;;;0.57;0.40;;;18.70;99.90;;;;;;4992917;28;20230;-52
2022/07/29 05:20:35;;;;;;;1.43;0.70;;;18.70;99.90;;;;;;4990977;28;20196;-53
2022/07/29 05:23:02;;;;;;;0.70;0.70;;;18.80;99.90;;;;;;4993557;28;20235;-52
2022/07/29 05:25:31;;;;;;;1.07;0.80;;;18.80;99.90;;;;;;4993437;28;20196;-52
2022/07/29 05:27:58;;;;;;;1.47;0.90;;;18.90;99.90;;;;;;4992026;28;20254;-53
2022/07/29 05:30:26;;;;;;;0.63;0.63;;;18.90;99.90;;;;;;4987544;28;20578;-52
2022/07/29 05:32:52;;;;;;;2.50;0.90;;;19.00;99.90;;;;;;4993659;28;20208;-53
2022/07/29 05:35:21;;;;;;;1.97;0.80;;;19.10;99.90;;;;;;4993309;28;20254;-52
2022/07/29 05:37:48;;;;;;;0.63;0.57;;;19.20;99.90;;;;;;4992043;28;20212;-52
2022/07/29 05:40:15;;;;;;;1.70;0.80;;;19.20;99.90;;;;;;4993300;28;20208;-52
2022/07/29 05:42:42;;;;;;;1.67;0.70;;;19.30;99.90;;;;;;4992204;28;20208;-52
2022/07/29 05:45:10;;;;;;;1.37;0.90;;;19.40;99.90;;;;;;4991239;28;20196;-52
2022/07/29 05:47:37;;;;;;;0.80;0.80;;;19.40;99.90;;;;;;4992358;28;20232;-53
2022/07/29 05:50:05;;;;;;;0.73;0.67;;;19.30;99.90;;;;;;4984497;28;20232;-52
2022/07/29 05:52:33;;;;;;;0.70;0.70;;;19.20;99.90;;;;;;4989482;28;20231;-52
2022/07/29 05:55:02;;;;;;;0.63;0.63;;;19.20;99.90;;;;;;4992200;28;20251;-52
2022/07/29 05:57:29;;;;;;;0.90;0.60;;;19.20;99.90;;;;;;4989965;28;20234;-52
2022/07/29 05:59:56;;;;;;;0.50;0.50;;;19.00;99.90;;;;;;4986890;28;20680;-52
2022/07/29 06:02:23;;;;;;;1.60;0.67;;;19.00;99.90;;;;;;4990701;28;20285;-52
2022/07/29 06:04:50;;;;;;;0.50;0.50;;;18.90;99.90;;;;;;4988455;28;20282;-52
2022/07/29 06:07:17;;;;;;;1.03;1.03;;;18.90;99.90;;;;;;4990631;28;20639;-52
2022/07/29 06:09:46;;;;;;;1.43;0.70;;;18.80;99.90;;;;;;4990347;28;20212;-53
2022/07/29 06:12:13;;;;;;;0.83;0.70;;;18.80;99.90;;;;;;4991513;28;20311;-53
2022/07/29 06:14:40;;;;;;;1.43;0.60;;;18.80;99.90;;;;;;4990237;28;20208;-52
2022/07/29 06:17:07;;;;;;;0.70;0.70;;;18.70;99.90;;;;;;4989815;28;20319;-53
2022/07/29 06:19:36;;;;;;;1.03;0.60;;;18.60;99.90;;;;;;4992365;28;20200;-52
2022/07/29 06:22:03;;;;;;;1.00;0.77;;;18.60;99.90;;;;;;4992562;28;20200;-53
2022/07/29 06:24:30;;;;;;;2.77;1.23;;;18.60;99.90;;;;;;4991583;28;20199;-52
2022/07/29 06:26:58;;;;;;;5.40;1.57;;;18.50;99.90;;;;;;4989908;28;20238;-53
2022/07/29 06:29:25;;;;;;;1.47;1.37;;;18.60;99.90;;;;;;4992298;28;20200;-52
2022/07/29 06:31:52;;;;;;;1.20;0.77;;;18.60;99.90;;;;;;4987024;28;20212;-53
2022/07/29 06:34:20;;;;;;;1.67;0.93;;;18.60;99.90;;;;;;4988612;28;20262;-53
2022/07/29 06:36:47;;;;;;;0.90;0.90;;;18.60;99.90;;;;;;4989696;28;20307;-53
2022/07/29 06:39:14;;;;;;;0.97;0.97;;;18.60;99.90;;;;;;4991071;28;20200;-52
2022/07/29 06:41:41;;;;;;;1.17;1.00;;;18.70;99.90;;;;;;4992228;28;20643;-53
2022/07/29 06:44:09;;;;;;;1.20;1.10;;;18.70;99.90;;;;;;4992157;28;20200;-52
2022/07/29 06:46:36;;;;;;;1.47;0.60;;;18.80;99.90;;;;;;4990171;28;20265;-52
2022/07/29 06:49:03;;;;;;;1.63;0.90;;;18.80;99.90;;;;;;4991772;28;20278;-52
2022/07/29 06:51:30;;;;;;;1.27;1.20;;;18.90;99.90;;;;;;4991267;28;20717;-53
2022/07/29 06:53:58;;;;;;;1.73;0.83;;;19.00;99.90;;;;;;4991917;28;20200;-53
2022/07/29 06:56:25;;;;;;;1.43;1.30;;;19.30;99.90;;;;;;4990135;28;20219;-52
2022/07/29 06:58:52;;;;;;;0.70;0.70;;;19.50;99.90;;;;;;4991535;28;20287;-53
2022/07/29 07:01:20;;;;;;;1.93;0.73;;;19.60;99.90;;;;;;4991915;28;20259;-53
2022/07/29 07:03:47;;;;;;;0.67;0.67;;;19.80;99.90;;;;;;4991834;28;20208;-52
2022/07/29 07:06:14;;;;;;;2.17;0.70;;;19.80;99.90;;;;;;4991266;28;20224;-53
2022/07/29 07:08:41;;;;;;;1.90;0.73;;;19.80;99.90;;;;;;4984164;28;20274;-52
2022/07/29 07:11:09;;;;;;;0.87;0.70;;;20.00;99.90;;;;;;4982360;28;20396;-52
2022/07/29 07:13:36;;;;;;;1.60;0.60;;;20.10;99.90;;;;;;4991176;28;20314;-52
2022/07/29 07:16:03;;;;;;;1.23;0.50;;;20.40;99.90;;;;;;4988922;28;20657;-53
2022/07/29 07:18:32;;;;;;;2.73;1.10;;;20.50;99.90;;;;;;4991822;28;20249;-53
2022/07/29 07:21:00;;;;;;;0.80;0.80;;;20.60;99.90;;;;;;4991297;28;20605;-53
2022/07/29 07:23:26;;;;;;;1.00;1.00;;;20.70;99.90;;;;;;4983168;28;20204;-52
2022/07/29 07:25:54;;;;;;;2.00;1.13;;;20.90;99.90;;;;;;4990385;28;20656;-53
2022/07/29 07:28:21;;;;;;;1.07;0.60;;;21.10;99.90;;;;;;5013647;23;20228;-50
2022/07/29 07:30:48;;;;;;;0.63;0.63;;;21.40;99.90;;;;;;4989398;28;20674;-50
2022/07/29 07:33:15;;;;;;;0.80;0.80;;;22.40;99.90;;;;;;4980101;28;20208;-49
2022/07/29 07:35:44;;;;;;;0.67;0.60;;;23.30;99.90;;;;;;4978839;28;20290;-51
2022/07/29 07:38:11;;;;;;;1.43;0.60;;;23.50;99.90;;;;;;4984138;28;20224;-50
2022/07/29 07:40:38;;;;;;;1.30;0.57;;;23.60;99.90;;;;;;4984025;28;20203;-50
2022/07/29 07:43:05;;;;;;;0.60;0.60;;;23.50;99.90;;;;;;4980932;28;20204;-50
2022/07/29 07:45:33;;;;;;;0.80;0.77;;;23.50;99.90;;;;;;4973024;28;20204;-51
2022/07/29 07:48:00;;;;;;;1.00;1.00;;;23.40;99.90;;;;;;4990533;28;20227;-50
2022/07/29 07:50:27;;;;;;;1.10;0.70;;;23.30;99.90;;;;;;4992359;28;20211;-49
2022/07/29 07:52:57;;;;;;;0.90;0.90;;;23.20;99.90;;;;;;4991218;28;20215;-50
2022/07/29 07:55:25;;;;;;;0.70;0.70;;;23.10;99.90;;;;;;4982855;28;20209;-50
2022/07/29 07:57:52;;;;;;;6.17;1.10;;;23.10;99.90;;;;;;4982741;28;20230;-50
2022/07/29 08:00:19;;;;;;;0.70;0.70;;;23.10;99.90;;;;;;4976784;28;20208;-50
2022/07/29 08:02:46;;;;;;;1.33;0.90;;;23.30;99.90;;;;;;4981294;28;20736;-50
2022/07/29 08:05:16;;;;;;;0.60;0.60;;;23.70;99.90;;;;;;4984168;28;20200;-50
2022/07/29 08:07:45;;;;;;;0.70;0.67;;;23.80;99.90;;;;;;4988290;28;20314;-50
2022/07/29 08:10:13;;;;;;;0.60;0.60;;;23.60;99.90;;;;;;4984380;28;20747;-50
2022/07/29 08:12:40;;;;;;;1.83;0.60;;;23.10;99.90;;;;;;4986146;28;20643;-50
2022/07/29 08:15:09;;;;;;;1.30;1.00;;;22.70;99.90;;;;;;4984193;28;20192;-50
2022/07/29 08:17:36;;;;;;;1.90;1.13;;;22.30;99.90;;;;;;4988362;28;20228;-50
2022/07/29 08:20:04;;;;;;;1.13;0.83;;;21.80;99.90;;;;;;4980343;28;20270;-51
2022/07/29 08:22:31;;;;;;;0.93;0.80;;;21.60;99.90;;;;;;4991425;28;20218;-50
2022/07/29 08:24:59;;;;;;;2.67;0.77;;;21.30;99.90;;;;;;4987441;28;20203;-50
2022/07/29 08:27:29;;;;;;;0.80;0.80;;;21.20;99.90;;;;;;4990887;28;20227;-50
2022/07/29 08:29:57;;;;;;;2.10;1.00;;;21.10;99.90;;;;;;4981783;28;20738;-50
2022/07/29 08:32:24;;;;;;;1.17;1.17;;;21.00;99.90;;;;;;4988524;28;20228;-50
2022/07/29 08:34:51;;;;;;;1.17;1.00;;;21.00;99.90;;;;;;4984229;28;20204;-50
2022/07/29 08:37:18;;;;;;;5.83;1.00;;;20.90;99.90;;;;;;4979955;28;20224;-50
2022/07/29 08:39:45;;;;;;;1.37;1.27;;;20.90;99.90;;;;;;4989443;28;20258;-50
2022/07/29 08:42:13;;;;;;;1.27;1.27;;;20.70;99.90;;;;;;4986019;28;20199;-50
2022/07/29 08:44:41;;;;;;;2.20;1.20;;;20.60;99.90;;;;;;4986294;28;20290;-50
2022/07/29 08:47:08;;;;;;;1.80;1.20;;;20.50;99.90;;;;;;4982721;28;20224;-49
2022/07/29 08:49:36;;;;;;;1.20;1.13;;;20.40;99.90;;;;;;4986323;28;20199;-50
2022/07/29 08:52:04;;;;;;;2.57;1.10;;;20.20;99.90;;;;;;4983824;28;20220;-50
2022/07/29 08:54:31;;;;;;;1.43;1.43;;;20.20;99.90;;;;;;4981263;28;20741;-49
2022/07/29 08:56:59;;;;;;;1.80;1.23;;;20.30;99.90;;;;;;4990939;28;20226;-50
2022/07/29 08:59:27;;;;;;;1.63;1.43;;;20.40;99.90;;;;;;4985713;28;20246;-50
2022/07/29 09:01:59;;;;;;;1.10;1.10;;;20.60;99.90;;;;;;4986965;28;20262;-50
2022/07/29 09:04:30;;;;;;;1.40;1.20;;;20.80;99.90;;;;;;4986085;28;20657;-50
2022/07/29 09:07:00;;;;;;;1.80;1.70;;;21.10;99.90;;;;;;4984059;28;20219;-50
2022/07/29 09:09:27;;;;;;;1.63;1.10;;;21.10;99.90;;;;;;4993757;28;20569;-50
2022/07/29 09:11:54;;;;;;;0.80;0.80;;;21.10;99.90;;;;;;4984839;28;20240;-50
2022/07/29 09:14:21;;;;;;;3.37;1.63;;;21.10;99.90;;;;;;4986104;28;20867;-50
2022/07/29 09:16:54;;;;;;;1.30;1.30;;;21.00;99.90;;;;;;4981890;28;20239;-50
2022/07/29 09:19:24;;;;;;;2.70;1.33;;;20.90;99.90;;;;;;4987009;28;20203;-50
2022/07/29 09:22:01;;;;;;;1.43;1.33;;;20.70;99.90;;;;;;4983232;28;20200;-50
2022/07/29 09:24:39;;;;;;;1.20;1.20;;;20.60;99.90;;;;;;4977486;28;20204;-50
2022/07/29 09:27:11;;;;;;;1.57;1.20;;;20.60;99.90;;;;;;4986945;28;20314;-50
2022/07/29 09:29:38;;;;;;;1.10;1.10;;;20.60;99.90;;;;;;4994355;28;20669;-50
2022/07/29 09:32:09;;;;;;;2.80;2.43;;;20.70;99.90;;;;;;4993402;28;20308;-50
2022/07/29 09:34:38;;;;;;;1.40;1.30;;;20.80;99.90;;;;;;4993626;28;20253;-50
2022/07/29 09:37:05;;;;;;;1.67;1.57;;;21.00;99.90;;;;;;4993452;28;20640;-50
2022/07/29 09:39:34;;;;;;;1.37;1.37;;;21.10;99.90;;;;;;4986057;28;20234;-50
2022/07/29 09:42:02;;;;;;;1.53;1.00;;;21.20;99.90;;;;;;4992901;28;20720;-50
2022/07/29 09:44:43;;;;;;;2.53;1.20;;;21.30;99.90;;;;;;4985637;28;20604;-50
2022/07/29 09:47:10;;;;;;;1.03;1.03;;;21.20;99.90;;;;;;4983801;28;20251;-50
2022/07/29 09:49:53;;;;;;;0.77;0.77;;;21.20;99.90;;;;;;4985976;28;20211;-50
2022/07/29 09:52:21;;;;;;;0.60;0.60;;;21.20;99.90;;;;;;4993373;28;20278;-50
2022/07/29 09:54:48;;;;;;;0.93;0.93;;;21.30;99.90;;;;;;4982834;28;20204;-50
2022/07/29 09:57:28;;;;;;;0.90;0.90;;;21.40;99.90;;;;;;4983834;28;20224;-50
2022/07/29 09:59:59;;;;;;;0.80;0.80;;;21.60;99.90;;;;;;4986666;28;20197;-51
2022/07/29 10:02:30;;;;;;;6.80;1.80;;;21.80;99.90;;;;;;4992746;28;20196;-50
2022/07/29 10:04:59;;;;;;;0.93;0.93;;;21.80;99.90;;;;;;4982835;28;20201;-50
2022/07/29 10:07:26;;;;;;;1.13;1.03;;;21.80;99.90;;;;;;4984282;28;20240;-50
2022/07/29 10:09:58;;;;;;;1.53;0.90;;;21.80;99.90;;;;;;4981423;28;20197;-50
2022/07/29 10:12:25;;;;;;;1.30;1.20;;;22.00;99.90;;;;;;4985997;28;20212;-51
2022/07/29 10:14:53;;;;;;;1.40;1.30;;;22.20;99.90;;;;;;4984511;28;20215;-49
2022/07/29 10:17:21;;;;;;;1.30;1.20;;;22.10;99.90;;;;;;4984098;28;20220;-50
2022/07/29 10:19:48;;;;;;;1.83;1.40;;;22.00;99.90;;;;;;4982129;28;20208;-50
2022/07/29 10:22:17;;;;;;;1.40;1.20;;;22.10;99.90;;;;;;4977444;28;20200;-51
2022/07/29 10:24:45;;;;;;;2.17;1.13;;;22.40;99.90;;;;;;4982773;28;20208;-50
2022/07/29 10:27:12;;;;;;;0.87;0.80;;;23.30;99.90;;;;;;4982233;28;20651;-50
2022/07/29 10:29:39;;;;;;;1.33;1.33;;;24.20;99.90;;;;;;4982115;28;20204;-50
2022/07/29 10:32:31;;;;;;;1.23;1.13;;;25.00;99.90;;;;;;4982630;28;20216;-50
2022/07/29 10:35:16;;;;;;;1.70;1.43;;;25.50;99.90;;;;;;4981895;28;20613;-50
2022/07/29 10:38:11;;;;;;;1.50;1.07;;;25.60;99.90;;;;;;4982844;28;20228;-50
2022/07/29 10:43:42;;;;;;;1.00;1.00;;;25.30;99.90;;;;;;4979710;28;20200;-50
2022/07/29 10:46:10;;;;;;;1.00;1.00;;;24.90;99.90;;;;;;4993173;28;20203;-50
2022/07/29 10:49:05;;;;;;;1.07;1.00;;;24.80;99.90;;;;;;4991076;28;20203;-51
2022/07/29 10:51:57;;;;;;;0.93;0.93;;;24.70;99.90;;;;;;4984143;28;20200;-51
2022/07/29 10:54:41;;;;;;;1.50;1.40;;;24.60;99.90;;;;;;4981704;28;20197;-51
2022/07/29 10:57:21;;;;;;;1.00;1.00;;;24.60;99.90;;;;;;4977671;28;20311;-51
2022/07/29 10:59:50;;;;;;;1.70;1.37;;;24.50;99.90;;;;;;4973262;28;20287;-50
2022/07/29 11:02:43;;;;;;;1.00;1.00;;;24.60;99.90;;;;;;4983679;28;20275;-50
2022/07/29 11:05:12;;;;;;;1.20;1.20;;;24.50;99.90;;;;;;4977199;28;20199;-50
2022/07/29 11:08:00;;;;;;;1.20;1.20;;;24.70;99.90;;;;;;4981129;28;20224;-50
2022/07/29 11:10:29;;;;;;;1.27;1.27;;;24.80;99.90;;;;;;4987955;28;20232;-50
2022/07/29 11:12:56;;;;;;;0.97;0.97;;;25.20;99.90;;;;;;4980745;28;20259;-51
2022/07/29 11:15:23;;;;;;;1.80;1.10;;;25.30;99.90;;;;;;4982335;28;20207;-50
2022/07/29 11:18:09;;;;;;;1.20;1.13;;;25.30;99.90;;;;;;4981349;28;20632;-49
2022/07/29 11:20:41;;;;;;;1.10;1.10;;;25.40;99.90;;;;;;4990819;28;20204;-50
2022/07/29 11:23:27;;;;;;;1.20;1.20;;;25.50;99.90;;;;;;4985741;28;20275;-51
2022/07/29 11:26:21;;;;;;;1.48;1.38;;;25.90;99.90;;;;;;4978018;28;20208;-50
2022/07/29 11:29:00;;;;;;;1.20;1.20;;;26.30;99.90;;;;;;4984064;28;20200;-50
2022/07/29 11:31:38;;;;;;;1.40;1.05;;;26.40;99.90;;;;;;4992708;28;20214;-50
2022/07/29 11:34:24;;;;;;;1.30;1.07;;;26.60;99.90;;;;;;4992472;28;20399;-50
2022/07/29 11:37:19;;;;;;;0.90;0.90;;;26.50;99.90;;;;;;4983436;28;20225;-50
2022/07/29 11:39:48;;;;;;;1.17;1.03;;;26.80;99.90;;;;;;4987718;28;20219;-50
2022/07/29 11:42:39;;;;;;;0.77;0.77;;;27.10;99.90;;;;;;4984208;28;20191;-50
2022/07/29 11:45:09;;;;;;;1.27;1.27;;;26.80;99.90;;;;;;4986106;28;20222;-51
2022/07/29 11:47:38;;;;;;;0.73;0.73;;;26.50;99.90;;;;;;4988051;28;20306;-50
2022/07/29 11:50:07;;;;;;;1.93;1.23;;;26.30;99.90;;;;;;4980734;28;20205;-50
2022/07/29 11:52:37;;;;;;;1.07;1.00;;;26.10;99.90;;;;;;4972812;28;20228;-50
2022/07/29 11:55:06;;;;;;;0.70;0.70;;;26.10;99.90;;;;;;4977692;28;20208;-50
2022/07/29 11:57:35;;;;;;;0.87;0.87;;;26.10;99.90;;;;;;4985878;28;20227;-50
2022/07/29 12:00:06;;;;;;;0.88;0.88;;;26.10;99.90;;;;;;4987140;28;20258;-50
2022/07/29 12:02:41;;;;;;;1.10;1.00;;;25.80;99.90;;;;;;4979383;28;20204;-51
2022/07/29 12:05:10;;;;;;;1.00;1.00;;;25.80;99.90;;;;;;4979407;28;20294;-50
2022/07/29 12:07:37;;;;;;;0.50;0.50;;;25.70;99.90;;;;;;4987224;28;20238;-51
2022/07/29 12:10:06;;;;;;;1.00;0.90;;;25.70;99.90;;;;;;4990352;28;20631;-50
2022/07/29 12:12:33;;;;;;;0.90;0.90;;;25.70;99.90;;;;;;4998603;28;20227;-50
2022/07/29 12:15:15;;;;;;;1.00;1.00;;;25.70;99.90;;;;;;4998800;28;20203;-50
2022/07/29 12:17:42;;;;;;;0.60;0.60;;;25.80;99.90;;;;;;4997148;28;20410;-50
2022/07/29 12:20:10;;;;;;;0.70;0.70;;;25.90;99.90;;;;;;4990393;28;20618;-50
2022/07/29 12:22:40;;;;;;;0.97;0.97;;;25.90;99.90;;;;;;4998614;28;20673;-50
2022/07/29 12:25:09;;;;;;;1.20;1.20;;;26.00;99.90;;;;;;4998667;28;20208;-50
2022/07/29 12:27:36;;;;;;;1.40;1.30;;;25.90;99.90;;;;;;4997082;28;20235;-50
2022/07/29 12:30:07;;;;;;;1.17;1.17;;;25.70;99.90;;;;;;4988255;28;20207;-50
2022/07/29 12:32:37;;;;;;;1.63;1.10;;;25.70;99.90;;;;;;4983829;28;20270;-50
2022/07/29 12:35:05;;;;;;;1.13;1.10;;;25.70;99.90;;;;;;4987383;28;20601;-50
2022/07/29 12:37:34;;;;;;;1.00;0.77;;;25.80;99.90;;;;;;4979194;28;20220;-50
2022/07/29 12:40:02;;;;;;;1.00;1.00;;;25.80;99.90;;;;;;4978781;28;20312;-50
2022/07/29 12:42:29;;;;;;;1.33;1.20;;;25.70;99.90;;;;;;4980761;28;20723;-50
2022/07/29 12:44:56;;;;;;;0.80;0.80;;;25.60;99.90;;;;;;4992404;28;20565;-50
2022/07/29 12:47:24;;;;;;;1.10;1.10;;;25.40;99.90;;;;;;4990333;28;20223;-50
2022/07/29 12:50:09;;;;;;;0.90;0.90;;;25.10;99.90;;;;;;4998454;28;20203;-50
2022/07/29 12:52:36;;;;;;;1.07;1.07;;;25.10;99.90;;;;;;4997059;28;20252;-49
2022/07/29 12:55:04;;;;;;;1.17;1.17;;;24.90;99.90;;;;;;4990151;28;20204;-50
2022/07/29 12:57:32;;;;;;;0.93;0.93;;;24.70;99.90;;;;;;4998133;28;20258;-50
2022/07/29 13:00:07;;;;;;;1.47;1.00;;;24.80;99.90;;;;;;4997994;28;20576;-50
2022/07/29 13:02:34;;;;;;;1.33;1.00;;;24.80;99.90;;;;;;4997053;28;20255;-50
2022/07/29 13:05:03;;;;;;;0.70;0.70;;;24.70;99.90;;;;;;4989907;28;20198;-50